INFORMAÇÕES DO AERODROMO
Icao Aerodromo KDK Nome do Aerodromo Kodiak Muni Cidade Kodiak
Código GPS KDK Elevação Média 139 ft Tipo de Aerodromo Aeroporto Pequeno Porte

INFORMAÇÃO DE PISTA
Pista 02 Comprimento da Pista 2475 ft Largura da Pista 40 ft
Elevação da Pista 240 ft Distância de Area de Escape da Pista 0 ft Orientação da Pista 0
Pista 20 Comprimento da Pista 2475 ft Largura da Pista 40 ft
Elevação da Pista 240 ft Distância de Area de Escape da Pista 0 ft Orientação da Pista 0

FREQUÊNCIAS DO AERODROMO

INFORMAÇÕES DE NAVEGAÇÃO PRÓXIMO AO AERODROMO

Informações de Meteorologia(METAR atual)
METAR DE KDK
ADDS - METARS form results

(1757 UTC 22 July 2018)
Data provider http://aviationweather.gov/adds/metars/
 
METAR text: KDKB 221735Z AUTO 36008KT 5SM BR OVC008 20/20 A2991 RMK AO2 T02030195
Conditions at: KDKB (DE KALB , IL, US) observed 1735 UTC 22 July 2018
Temperature: 20.3°C (69°F)
Dewpoint: 19.5°C (67°F) [RH = 95%]
Pressure (altimeter): 29.91 inches Hg (1013.0 mb)
Winds: from the N (360 degrees) at 9 MPH (8 knots; 4.2 m/s)
Visibility: 5 miles (8 km)
Ceiling: 800 feet AGL
Clouds: overcast cloud deck at 800 feet AGL
Weather: BR  (mist)

METAR text: KDKB 221715Z AUTO 36010G15KT 10SM OVC008 21/20 A2991 RMK AO2 T02100195
Conditions at: KDKB (DE KALB , IL, US) observed 1715 UTC 22 July 2018
Temperature: 21.0°C (70°F)
Dewpoint: 19.5°C (67°F) [RH = 91%]
Pressure (altimeter): 29.91 inches Hg (1013.0 mb)
Winds: from the N (360 degrees) at 12 MPH (10 knots; 5.2 m/s)
gusting to 17 MPH (15 knots; 7.8 m/s)
Visibility: 10 or more miles (16+ km)
Ceiling: 800 feet AGL
Clouds: overcast cloud deck at 800 feet AGL
Weather: automated observation with no human augmentation;
there may or may not be significant weather present at this time

METAR text: KDKK 221753Z AUTO 19012G20KT 10SM OVC023 22/17 A2977 RMK AO2 SLP077 60004 T02170167 10222 20161 51017 $
Conditions at: KDKK (DUNKIRK , NY, US) observed 1753 UTC 22 July 2018
Temperature: 21.7°C (71°F)
Dewpoint: 16.7°C (62°F) [RH = 73%]
Pressure (altimeter): 29.77 inches Hg (1008.2 mb)
[Sea-level pressure: 1007.7 mb]
Winds: from the S (190 degrees) at 14 MPH (12 knots; 6.2 m/s)
gusting to 23 MPH (20 knots; 10.4 m/s)
Visibility: 10 or more miles (16+ km)
Ceiling: 2300 feet AGL
Clouds: overcast cloud deck at 2300 feet AGL
Weather:
SOME DATA ABOVE MAY BE INACCURATE!!!
"$" is an indication the sensor requires maintenance

METAR text: KDKR 221730Z AUTO 00000KT 10SM 34/23 A2999 RMK AO2
Conditions at: KDKR (CROCKETT , TX, US) observed 1730 UTC 22 July 2018
Temperature: 34.0°C (93°F)
Dewpoint: 23.0°C (73°F) [RH = 53%]
Pressure (altimeter): 29.99 inches Hg (1015.7 mb)
Winds: calm
Visibility: 10 or more miles (16+ km)
Ceiling: unknown
Clouds: missing
Weather: automated observation with no human augmentation;
there may or may not be significant weather present at this time

METAR text: KDKR 221710Z AUTO 28006KT 10SM 34/23 A2999 RMK AO2
Conditions at: KDKR (CROCKETT , TX, US) observed 1710 UTC 22 July 2018
Temperature: 34.0°C (93°F)
Dewpoint: 23.0°C (73°F) [RH = 53%]
Pressure (altimeter): 29.99 inches Hg (1015.7 mb)
Winds: from the W (280 degrees) at 7 MPH (6 knots; 3.1 m/s)
Visibility: 10 or more miles (16+ km)
Ceiling: unknown
Clouds: missing
Weather: automated observation with no human augmentation;
there may or may not be significant weather present at this time

METAR text: KDKX 221735Z AUTO 26009G16KT 10SM BKN022 BKN032 OVC060 25/20 A2978 RMK A01
Conditions at: KDKX (KNOXVILLE DOWNTO, TN, US) observed 1735 UTC 22 July 2018
Temperature: 25.0°C (77°F)
Dewpoint: 20.0°C (68°F) [RH = 74%]
Pressure (altimeter): 29.78 inches Hg (1008.5 mb)
Winds: from the W (260 degrees) at 10 MPH (9 knots; 4.7 m/s)
gusting to 18 MPH (16 knots; 8.3 m/s)
Visibility: 10 or more miles (16+ km)
Ceiling: 2200 feet AGL
Clouds: broken clouds at 2200 feet AGL
broken clouds at 3200 feet AGL
overcast cloud deck at 6000 feet AGL
Weather: automated observation with no human augmentation;
there may or may not be significant weather present at this time

METAR text: KDKX 221715Z AUTO VRB06KT 10SM SCT017 BKN031 OVC038 24/21 A2979 RMK A01
Conditions at: KDKX (KNOXVILLE DOWNTO, TN, US) observed 1715 UTC 22 July 2018
Temperature: 24.0°C (75°F)
Dewpoint: 21.0°C (70°F) [RH = 83%]
Pressure (altimeter): 29.79 inches Hg (1008.9 mb)
Winds: variable direction winds at 7 MPH (6 knots; 3.1 m/s)
Visibility: 10 or more miles (16+ km)
Ceiling: 3100 feet AGL
Clouds: scattered clouds at 1700 feet AGL
broken clouds at 3100 feet AGL
overcast cloud deck at 3800 feet AGL
Weather: automated observation with no human augmentation;
there may or may not be significant weather present at this time

MAPA DO AERODROMO


Desenvolvido por Virtual Airlines Manager




Modificado por Servidor Brasil Amigos